Bookmark and Share
Track history (hours):
 

Chopin

Last reported at 2014-Apr-23 11:21 UTC. Time now 2014-Apr-24 06:04 UTC.
Position N 59°53' E 030°14'.

Length 104 m; draft 4.4 m.

Type: Cargo ship. MMSI: 236099000.

NotesDate/timePositionNaut miles runAvg speedWind from/ knotsBaromVisibWave heightAir tempDewpointWater temp
2014-Apr-23 11:21N 59°53' E 030°14'0 0.0
2014-Apr-23 09:21N 59°53' E 030°14'0 0.0
2014-Apr-23 08:33N 59°53' E 030°14'0 0.0
2014-Apr-23 05:27N 59°53' E 030°14'0 0.0
2014-Apr-23 01:27N 59°53' E 030°14'0 0.0
2014-Apr-23 00:33N 59°53' E 030°14'0 0.0
2014-Apr-22 20:27N 59°53' E 030°14'0 0.0
2014-Apr-22 05:30N 59°53' E 030°13'10310.3
2014-Apr-21 19:31N 59°59' E 026°48'3511.9
2014-Apr-21 16:33N 59°51' E 025°39'1611.8
2014-Apr-21 15:14N 59°48' E 025°09'911.8
2014-Apr-21 14:30N 59°46' E 024°51'1111.8
2014-Apr-21 13:33N 59°44' E 024°30'1211.7
2014-Apr-21 12:33N 59°40' E 024°08'1211.7
2014-Apr-21 11:33N 59°36' E 023°46'1211.7
2014-Apr-21 10:33N 59°32' E 023°24'29611.4
2014-Apr-20 08:32N 56°05' E 016°47'1111.5
2014-Apr-20 07:33N 55°58' E 016°30'1111.4
2014-Apr-20 06:33N 55°52' E 016°13'1111.1
2014-Apr-20 05:33N 55°46' E 015°56'1410.9
2014-Apr-20 04:17N 55°40' E 015°34'1010.6
2014-Apr-20 03:19N 55°35' E 015°19'810.8
2014-Apr-20 02:33N 55°31' E 015°05'1111.3
2014-Apr-20 01:33N 55°26' E 014°48'1111.2
2014-Apr-20 00:33N 55°19' E 014°33'1111.1
2014-Apr-19 23:33N 55°10' E 014°20'1111.4
2014-Apr-19 22:33N 55°02' E 014°07'1111.1
2014-Apr-19 21:33N 54°57' E 013°49'1111.0
2014-Apr-19 20:33N 54°54' E 013°31'1110.6
2014-Apr-19 19:33N 54°50' E 013°14'1111.0
2014-Apr-19 18:33N 54°46' E 012°56'1110.7
2014-Apr-19 17:33N 54°42' E 012°39'1110.5
2014-Apr-19 16:33N 54°35' E 012°25'1110.8
2014-Apr-19 15:33N 54°27' E 012°13'1010.1
2014-Apr-19 14:33N 54°25' E 011°56'1010.4
2014-Apr-19 13:33N 54°27' E 011°39'1111.3
2014-Apr-19 12:34N 54°32' E 011°21'1211.9
2014-Apr-19 11:32N 54°35' E 011°01'52 8.2
2014-Apr-19 05:13N 54°17' E 009°38'4 5.8
2014-Apr-19 04:33N 54°13' E 009°35'8 8.4
2014-Apr-19 03:33N 54°09' E 009°23'8 8.3
2014-Apr-19 02:33N 54°01' E 009°18'8 7.8
2014-Apr-19 01:33N 53°55' E 009°11'0 0.0
2014-Apr-19 00:33N 53°55' E 009°11'0 0.0
2014-Apr-18 23:33N 53°55' E 009°11'2 1.8
2014-Apr-18 22:33N 53°53' E 009°09'6 6.4
2014-Apr-18 21:33N 53°51' E 008°59'8 8.3
2014-Apr-18 20:33N 53°51' E 008°45'8 8.4
2014-Apr-18 19:33N 53°58' E 008°35'9 9.1
2014-Apr-18 18:33N 53°59' E 008°20'10 9.9
2014-Apr-18 17:33N 53°58' E 008°04'9 8.6
2014-Apr-18 16:33N 53°53' E 007°52'1111.1
2014-Apr-18 15:33N 53°48' E 008°09'1313.0
2014-Apr-18 14:33N 53°39' E 008°25'8 8.3
2014-Apr-18 13:33N 53°32' E 008°34'3 2.8
2014-Apr-18 12:31N 53°30' E 008°31'0 0.0
2014-Apr-18 11:31N 53°30' E 008°31'0 0.0
2014-Apr-18 10:31N 53°30' E 008°31'0 0.0
2014-Apr-18 09:31N 53°30' E 008°31'0 0.0
2014-Apr-18 08:31N 53°30' E 008°31'0 0.0
2014-Apr-18 07:31N 53°30' E 008°31'0 0.0
2014-Apr-18 06:31N 53°30' E 008°31'0 0.0
2014-Apr-18 05:31N 53°30' E 008°31'0 0.0
2014-Apr-18 04:31N 53°30' E 008°31'0 0.0
2014-Apr-18 03:31N 53°30' E 008°31'0 0.0
2014-Apr-18 02:31N 53°30' E 008°31'0 0.0
2014-Apr-18 01:31N 53°30' E 008°31'0 0.0
2014-Apr-18 00:31N 53°30' E 008°31'0 0.0
2014-Apr-17 23:31N 53°30' E 008°31'0 0.0
2014-Apr-17 22:31N 53°30' E 008°31'0 0.0
2014-Apr-17 21:31N 53°30' E 008°31'0 0.0
2014-Apr-17 20:31N 53°30' E 008°31'0 0.0
2014-Apr-17 19:31N 53°30' E 008°31'0 0.0
2014-Apr-17 18:31N 53°30' E 008°31'0 0.0
2014-Apr-17 17:31N 53°30' E 008°31'0 0.0
2014-Apr-17 16:31N 53°30' E 008°31'0 0.0
2014-Apr-17 15:31N 53°30' E 008°31'0 0.0
2014-Apr-17 14:31N 53°30' E 008°31'0 0.0
2014-Apr-17 13:31N 53°30' E 008°31'0 0.0
2014-Apr-17 12:31N 53°30' E 008°31'0 0.0
2014-Apr-17 11:31N 53°30' E 008°31'0 0.0
2014-Apr-17 10:31N 53°30' E 008°31'0 0.0
2014-Apr-17 09:31N 53°30' E 008°31'0 0.0
2014-Apr-17 08:28N 53°30' E 008°31'0 0.0
2014-Apr-17 07:31N 53°30' E 008°31'0 0.0
2014-Apr-17 06:33N 53°30' E 008°31'1 1.4
2014-Apr-17 05:34N 53°31' E 008°33'6 5.9
2014-Apr-17 04:33N 53°37' E 008°29'8 7.9
2014-Apr-17 03:34N 53°42' E 008°20'8 8.0
2014-Apr-17 02:34N 53°47' E 008°09'9 8.7
2014-Apr-17 01:33N 53°52' E 007°56'1010.1
2014-Apr-17 00:33N 53°54' E 007°39'1111.2
2014-Apr-16 23:33N 53°53' E 007°20'1211.9
2014-Apr-16 22:34N 53°50' E 007°01'1212.1
2014-Apr-16 21:33N 53°48' E 006°41'1212.2
2014-Apr-16 20:33N 53°45' E 006°21'1212.2
2014-Apr-16 19:34N 53°41' E 006°01'1212.2
2014-Apr-16 18:33N 53°37' E 005°42'1211.9
2014-Apr-16 17:33N 53°33' E 005°23'1211.7
2014-Apr-16 16:33N 53°29' E 005°04'1110.8
2014-Apr-16 15:33N 53°26' E 004°47'10 9.8
2014-Apr-16 14:34N 53°18' E 004°38'1010.1
2014-Apr-16 13:34N 53°09' E 004°30'10 9.9
2014-Apr-16 12:32N 52°60' E 004°22'10 9.7
2014-Apr-16 11:33N 52°51' E 004°15'10 9.6
2014-Apr-16 10:33N 52°43' E 004°06'10 9.6
2014-Apr-16 09:33N 52°36' E 003°54'9 9.4
2014-Apr-16 08:33N 52°30' E 003°43'10 9.6
2014-Apr-16 07:30N 52°22' E 003°32'1010.3
2014-Apr-16 06:33N 52°16' E 003°21'1111.0
2014-Apr-16 05:33N 52°08' E 003°07'4111.9
2014-Apr-16 02:08N 51°37' E 002°25'712.5
2014-Apr-16 01:33N 51°31' E 002°18'1212.1
2014-Apr-16 00:34N 51°21' E 002°07'1110.7
2014-Apr-15 23:33N 51°12' E 001°58'1111.5
2014-Apr-15 22:34N 51°05' E 001°44'1410.5
2014-Apr-15 21:14N 50°55' E 001°29'8 8.8
2014-Apr-15 20:20N 50°47' E 001°24'7 8.5
2014-Apr-15 19:33N 50°41' E 001°20'10 8.8
2014-Apr-15 18:26N 50°34' E 001°09'9 8.7
2014-Apr-15 17:26N 50°28' E 000°59'8 8.9
2014-Apr-15 16:33N 50°26' E 000°47'8 8.4
2014-Apr-15 15:33N 50°24' E 000°34'73 9.1
2014-Apr-15 07:33N 50°05' W 001°15'  

Dump ship's entire track history

sailing weather and tide predictions

Chopin — ZDFE4 — position and weather